Time;durP1;ratioP1;P1;durP2;ratioP2;P2;SDS_P1;SDS_P2;PMS_P1;PMS_P2;Temp;Humidity;BMP_temperature;BMP_pressure;BME280_temperature;BME280_humidity;BME280_pressure;Samples;Min_cycle;Max_cycle;Signal;HPM_P1;HPM_P2
2022/06/30 00:00:41;;;;;;;19.07;10.57;;;;;;;-147.27;100.00;65176.34;4977578;28;19921;-53
2022/06/30 00:03:06;;;;;;;18.92;12.52;;;;;;;-147.27;100.00;65176.34;4969040;28;20095;-50
2022/06/30 00:05:32;;;;;;;17.38;10.88;;;;;;;-147.27;100.00;65176.34;4982440;28;20132;-50
2022/06/30 00:07:58;;;;;;;;;;;;;;;-147.27;100.00;65176.34;4981383;28;20035;-53
2022/06/30 00:10:23;;;;;;;15.93;10.67;;;;;;;-147.27;100.00;65176.34;4982025;28;19929;-48
2022/06/30 00:12:49;;;;;;;15.82;10.00;;;;;;;-147.27;100.00;65176.34;4981715;28;20035;-50
2022/06/30 00:15:14;;;;;;;20.05;12.82;;;;;;;-147.27;100.00;65176.34;4978874;28;20039;-53
2022/06/30 00:17:40;;;;;;;20.48;12.52;;;;;;;-147.27;100.00;65176.34;4976582;28;20035;-51
2022/06/30 00:20:06;;;;;;;17.88;11.65;;;;;;;-147.27;100.00;65176.34;4979277;28;20088;-52
2022/06/30 00:22:32;;;;;;;18.35;11.90;;;;;;;-147.27;100.00;65176.34;4973167;28;20045;-50
2022/06/30 00:24:58;;;;;;;16.73;10.77;;;;;;;-147.27;100.00;65176.34;4977133;28;20035;-50
2022/06/30 00:27:23;;;;;;;14.93;11.88;;;;;;;-147.27;100.00;65176.34;4974755;28;20046;-51
2022/06/30 00:29:49;;;;;;;17.65;10.80;;;;;;;-147.27;100.00;65176.34;4981885;28;20037;-51
2022/06/30 00:32:15;;;;;;;19.20;11.75;;;;;;;-147.27;100.00;65176.34;4976013;28;20043;-50
2022/06/30 00:34:40;;;;;;;;;;;;;;;-147.27;100.00;65176.34;4981648;28;20054;-53
2022/06/30 00:37:06;;;;;;;16.30;11.67;;;;;;;-147.27;100.00;65176.34;4977699;28;19915;-50
2022/06/30 00:39:31;;;;;;;17.58;12.20;;;;;;;-147.27;100.00;65176.34;4977527;28;20033;-50
2022/06/30 00:41:57;;;;;;;17.35;10.60;;;;;;;-147.27;100.00;65176.34;4981370;28;20062;-49
2022/06/30 00:44:23;;;;;;;13.55;10.48;;;;;;;-147.27;100.00;65176.34;4975930;28;20058;-51
2022/06/30 00:46:48;;;;;;;17.27;11.80;;;;;;;-147.27;100.00;65176.34;4982815;28;20035;-51
2022/06/30 00:49:17;;;;;;;15.25;10.65;;;;;;;-147.27;100.00;65176.34;4982463;28;20030;-50
2022/06/30 00:51:43;;;;;;;18.80;11.23;;;;;;;-147.27;100.00;65176.34;4976726;28;20039;-51
2022/06/30 00:54:11;;;;;;;18.13;11.93;;;;;;;-147.27;100.00;65176.34;4979960;28;20090;-51
2022/06/30 00:56:41;;;;;;;19.93;12.40;;;;;;;-147.27;100.00;65176.34;4980910;28;20027;-51
2022/06/30 00:59:08;;;;;;;16.20;10.63;;;;;;;-147.27;100.00;65176.34;4978708;28;20085;-50
2022/06/30 01:01:36;;;;;;;19.80;10.10;;;;;;;-147.27;100.00;65176.34;4978853;28;20027;-52
2022/06/30 01:04:01;;;;;;;19.13;12.33;;;;;;;-147.27;100.00;65176.34;4981348;28;20043;-54
2022/06/30 01:06:28;;;;;;;21.52;10.57;;;;;;;-147.27;100.00;65176.34;4977285;28;20066;-52
2022/06/30 01:08:54;;;;;;;19.30;10.93;;;;;;;-147.27;100.00;65176.34;4972498;28;20036;-51
2022/06/30 01:14:03;;;;;;;19.33;10.93;;;;;;;-147.27;100.00;65176.34;4971658;28;20035;-47
2022/06/30 01:16:29;;;;;;;16.85;10.38;;;;;;;-147.27;100.00;65176.34;4980574;28;20069;-51
2022/06/30 01:18:55;;;;;;;17.48;10.13;;;;;;;-147.27;100.00;65176.34;4981564;28;20042;-53
2022/06/30 01:21:21;;;;;;;16.10;10.35;;;;;;;-147.27;100.00;65176.34;4976367;28;20031;-48
2022/06/30 01:23:47;;;;;;;14.68;9.63;;;;;;;-147.27;100.00;65176.34;4976135;28;20045;-52
2022/06/30 01:26:12;;;;;;;16.13;9.00;;;;;;;-147.27;100.00;65176.34;4961410;28;20046;-50
2022/06/30 01:28:38;;;;;;;12.40;8.90;;;;;;;-147.27;100.00;65176.34;4980687;28;20085;-51
2022/06/30 01:31:04;;;;;;;15.15;8.90;;;;;;;-147.27;100.00;65176.34;4973699;28;20035;-48
2022/06/30 01:33:29;;;;;;;14.93;9.27;;;;;;;-147.27;100.00;65176.34;4976433;28;20051;-51
2022/06/30 01:35:56;;;;;;;12.02;8.90;;;;;;;-147.27;100.00;65176.34;4977212;28;20039;-53
2022/06/30 01:38:21;;;;;;;;;;;;;;;-147.27;100.00;65176.34;4986058;28;20091;-51
2022/06/30 01:40:48;;;;;;;13.37;8.60;;;;;;;-147.27;100.00;65176.34;4982059;28;19944;-50
2022/06/30 01:43:14;;;;;;;;;;;;;;;-147.27;100.00;65176.34;4986222;28;20050;-55
2022/06/30 01:45:41;;;;;;;15.07;9.53;;;;;;;-147.27;100.00;65176.34;4982882;28;19925;-48
2022/06/30 01:48:07;;;;;;;;;;;;;;;-147.27;100.00;65176.34;4983994;28;20032;-50
2022/06/30 01:50:33;;;;;;;17.70;9.87;;;;;;;-147.27;100.00;65176.34;4979972;28;19914;-53
2022/06/30 01:53:00;;;;;;;;;;;;;;;-147.27;100.00;65176.34;4981034;28;20031;-49
2022/06/30 01:55:26;;;;;;;13.75;8.90;;;;;;;-147.27;100.00;65176.34;4982024;28;19938;-48
2022/06/30 01:57:52;;;;;;;;;;;;;;;-147.27;100.00;65176.34;4982291;28;20042;-49
2022/06/30 02:00:20;;;;;;;15.00;10.17;;;;;;;-147.27;100.00;65176.34;4980191;28;19990;-51
2022/06/30 02:02:48;;;;;;;14.43;10.40;;;;;;;-147.27;100.00;65176.34;4985212;28;20038;-52
2022/06/30 02:05:14;;;;;;;15.13;9.80;;;;;;;-147.27;100.00;65176.34;4983967;28;20043;-53
2022/06/30 02:07:41;;;;;;;16.13;10.63;;;;;;;-147.27;100.00;65176.34;4981089;28;20061;-51
2022/06/30 02:10:07;;;;;;;;;;;;;;;-147.27;100.00;65176.34;4977404;28;20035;-54
2022/06/30 02:12:46;;;;;;;14.27;10.27;;;;;;;-147.27;100.00;65176.34;4977411;28;19981;-51
2022/06/30 02:15:17;;;;;;;23.30;11.50;;;;;;;-147.27;100.00;65176.34;4980779;28;20050;-48
2022/06/30 02:17:45;;;;;;;20.10;11.37;;;;;;;-147.27;100.00;65176.34;4981305;28;20062;-50
2022/06/30 02:20:11;;;;;;;18.13;12.23;;;;;;;-147.27;100.00;65176.34;4976536;28;20031;-47
2022/06/30 02:22:39;;;;;;;19.53;12.43;;;;;;;-147.27;100.00;65176.34;4979119;28;20034;-50
2022/06/30 02:25:06;;;;;;;15.87;12.57;;;;;;;-147.27;100.00;65176.34;4978881;28;20050;-50
2022/06/30 02:27:32;;;;;;;17.53;11.70;;;;;;;-147.27;100.00;65176.34;4979858;28;20043;-51
2022/06/30 02:29:57;;;;;;;15.88;11.35;;;;;;;-147.27;100.00;65176.34;4982963;28;20031;-53
2022/06/30 02:32:23;;;;;;;21.05;13.88;;;;;;;-147.27;100.00;65176.34;4983132;28;20111;-50
2022/06/30 02:34:51;;;;;;;18.00;13.03;;;;;;;-147.27;100.00;65176.34;4980804;28;20071;-48
2022/06/30 02:37:16;;;;;;;21.97;14.00;;;;;;;-147.27;100.00;65176.34;4978583;28;20039;-48
2022/06/30 02:39:42;;;;;;;21.85;13.40;;;;;;;-147.27;100.00;65176.34;4980374;28;20036;-47
2022/06/30 02:42:08;;;;;;;18.88;13.35;;;;;;;-147.27;100.00;65176.34;4978715;28;20050;-48
2022/06/30 02:44:33;;;;;;;22.98;14.20;;;;;;;-147.27;100.00;65176.34;4989325;28;20031;-47
2022/06/30 02:46:59;;;;;;;24.80;15.50;;;;;;;-147.27;100.00;65176.34;4980620;28;20035;-51
2022/06/30 02:49:25;;;;;;;22.73;16.52;;;;;;;-147.27;100.00;65176.34;4980783;28;20035;-51
2022/06/30 02:51:50;;;;;;;23.48;15.63;;;;;;;-147.27;100.00;65176.34;4979094;28;20113;-49
2022/06/30 02:54:16;;;;;;;23.35;16.02;;;;;;;-147.27;100.00;65176.34;4983270;28;20107;-54
2022/06/30 02:56:42;;;;;;;;;;;;;;;-147.27;100.00;65176.34;4983449;28;20045;-49
2022/06/30 02:59:08;;;;;;;30.27;17.57;;;;;;;-147.27;100.00;65176.34;4981446;28;19914;-51
2022/06/30 03:01:34;;;;;;;25.33;17.25;;;;;;;-147.27;100.00;65176.34;4978763;28;20031;-49
2022/06/30 03:04:02;;;;;;;29.30;18.77;;;;;;;-147.27;100.00;65176.34;4980699;28;20054;-49
2022/06/30 03:06:28;;;;;;;26.47;17.03;;;;;;;-147.27;100.00;65176.34;4976806;28;20069;-47
2022/06/30 03:08:55;;;;;;;27.00;17.50;;;;;;;-147.27;100.00;65176.34;4980947;28;20036;-52
2022/06/30 03:11:21;;;;;;;25.77;18.20;;;;;;;-147.27;100.00;65176.34;4980962;28;20137;-49
2022/06/30 03:13:47;;;;;;;29.90;18.25;;;;;;;-147.27;100.00;65176.34;4980628;28;20031;-50
2022/06/30 03:16:13;;;;;;;31.45;18.98;;;;;;;-147.27;100.00;65176.34;4981303;28;20030;-53
2022/06/30 03:18:39;;;;;;;28.15;17.20;;;;;;;-147.27;100.00;65176.34;4980029;28;20037;-50
2022/06/30 03:21:05;;;;;;;22.97;17.63;;;;;;;-147.27;100.00;65176.34;4983119;28;20127;-52
2022/06/30 03:23:31;;;;;;;25.87;18.07;;;;;;;-147.27;100.00;65176.34;4982348;28;20034;-54
2022/06/30 03:25:57;;;;;;;25.50;16.08;;;;;;;-147.27;100.00;65176.34;4981469;28;20035;-53
2022/06/30 03:28:23;;;;;;;28.13;18.10;;;;;;;-147.27;100.00;65176.34;4981622;28;20073;-54
2022/06/30 03:30:49;;;;;;;28.88;18.73;;;;;;;-147.27;100.00;65176.34;4977561;28;20041;-55
2022/06/30 03:33:15;;;;;;;29.00;19.30;;;;;;;-147.27;100.00;65176.34;4976100;28;20043;-55
2022/06/30 03:35:41;;;;;;;24.43;18.20;;;;;;;-147.27;100.00;65176.34;4978306;28;20066;-54
2022/06/30 03:38:07;;;;;;;32.47;17.42;;;;;;;-147.27;100.00;65176.34;4981717;28;20026;-50
2022/06/30 03:40:32;;;;;;;29.60;18.08;;;;;;;-147.27;100.00;65176.34;4983444;28;20035;-52
2022/06/30 03:42:58;;;;;;;22.67;16.20;;;;;;;-147.27;100.00;65176.34;4981643;28;20034;-54
2022/06/30 03:45:24;;;;;;;27.60;18.75;;;;;;;-147.27;100.00;65176.34;4978552;28;20095;-54
2022/06/30 03:47:49;;;;;;;25.83;18.40;;;;;;;-147.27;100.00;65176.34;4977518;28;20064;-49
2022/06/30 03:50:15;;;;;;;29.30;19.25;;;;;;;-147.27;100.00;65176.34;4980496;28;20055;-53
2022/06/30 03:52:40;;;;;;;29.73;19.83;;;;;;;-147.27;100.00;65176.34;4982684;28;20065;-51
2022/06/30 03:55:06;;;;;;;27.07;18.50;;;;;;;-147.27;100.00;65176.34;4982214;28;20062;-48
2022/06/30 03:57:32;;;;;;;37.63;20.93;;;;;;;-147.27;100.00;65176.34;4981832;28;20257;-54
2022/06/30 03:59:58;;;;;;;52.05;31.90;;;;;;;-147.27;100.00;65176.34;4973987;28;20042;-49
2022/06/30 04:02:23;;;;;;;32.42;21.08;;;;;;;-147.27;100.00;65176.34;4982712;28;20119;-49
2022/06/30 04:04:48;;;;;;;28.73;18.45;;;;;;;-147.27;100.00;65176.34;4979209;28;20045;-49
2022/06/30 04:07:14;;;;;;;33.03;19.60;;;;;;;-147.27;100.00;65176.34;4983773;28;20118;-49
2022/06/30 04:09:40;;;;;;;33.30;18.67;;;;;;;-147.27;100.00;65176.34;4981452;28;20026;-51
2022/06/30 04:12:05;;;;;;;29.88;20.23;;;;;;;-147.27;100.00;65176.34;4981518;28;20039;-46
2022/06/30 04:14:31;;;;;;;;;;;;;;;-147.27;100.00;65176.34;4977562;28;20065;-48
2022/06/30 04:16:57;;;;;;;32.87;21.00;;;;;;;-147.27;100.00;65176.34;5002119;28;19918;-52
2022/06/30 04:19:23;;;;;;;36.67;23.02;;;;;;;-147.27;100.00;65176.34;4981230;28;20050;-50
2022/06/30 04:21:49;;;;;;;139.73;78.03;;;;;;;-147.27;100.00;65176.34;4981868;28;20039;-52
2022/06/30 04:24:15;;;;;;;54.75;30.73;;;;;;;-147.27;100.00;65176.34;4979799;28;20098;-49
2022/06/30 04:26:40;;;;;;;53.67;32.78;;;;;;;-147.27;100.00;65176.34;4980735;28;20105;-48
2022/06/30 04:29:06;;;;;;;;;;;;;;;-147.27;100.00;65176.34;4977481;28;20045;-48
2022/06/30 04:34:16;;;;;;;49.60;25.37;;;;;;;-147.27;100.00;65176.34;4979626;28;20137;-47
2022/06/30 04:36:42;;;;;;;48.25;26.85;;;;;;;-147.27;100.00;65176.34;4980116;28;20034;-50
2022/06/30 04:39:07;;;;;;;52.20;25.65;;;;;;;-147.27;100.00;65176.34;4981126;28;20039;-50
2022/06/30 04:41:33;;;;;;;43.80;25.08;;;;;;;-147.27;100.00;65176.34;4977216;28;20031;-50
2022/06/30 04:44:00;;;;;;;66.15;30.38;;;;;;;-147.27;100.00;65176.34;4980373;28;20053;-55
2022/06/30 04:46:26;;;;;;;53.13;25.70;;;;;;;-147.27;100.00;65176.34;4976646;28;20058;-54
2022/06/30 04:48:53;;;;;;;71.07;30.43;;;;;;;-147.27;100.00;65176.34;4973687;28;20035;-53
2022/06/30 04:51:19;;;;;;;;;;;;;;;-147.27;100.00;65176.34;4973590;28;20047;-52
2022/06/30 04:53:44;;;;;;;39.93;22.50;;;;;;;-147.27;100.00;65176.34;4977857;28;19918;-50
2022/06/30 04:56:11;;;;;;;32.60;21.65;;;;;;;-147.27;100.00;65176.34;4971279;28;20063;-53
2022/06/30 04:58:37;;;;;;;37.53;23.73;;;;;;;-147.27;100.00;65176.34;4980094;28;20041;-47
2022/06/30 05:01:03;;;;;;;;;;;;;;;-147.27;100.00;65176.34;4978081;28;20047;-53
2022/06/30 05:03:30;;;;;;;37.55;25.45;;;;;;;-147.27;100.00;65176.34;4967432;28;19925;-47
2022/06/30 05:05:55;;;;;;;;;;;;;;;-147.27;100.00;65176.34;4971178;28;20086;-53
2022/06/30 05:08:21;;;;;;;42.63;27.97;;;;;;;-147.27;100.00;65176.34;4972490;28;19918;-51
2022/06/30 05:10:47;;;;;;;41.55;26.08;;;;;;;-147.27;100.00;65176.34;4981625;28;20028;-53
2022/06/30 05:13:12;;;;;;;39.75;26.58;;;;;;;-147.27;100.00;65176.34;4980577;28;20058;-51
2022/06/30 05:15:38;;;;;;;36.42;25.38;;;;;;;-147.27;100.00;65176.34;4980513;28;20057;-49
2022/06/30 05:18:03;;;;;;;35.33;25.33;;;;;;;-147.27;100.00;65176.34;4977626;28;20042;-48
2022/06/30 05:20:30;;;;;;;33.10;22.33;;;;;;;-147.27;100.00;65176.34;4977706;28;20110;-50
2022/06/30 05:22:55;;;;;;;39.35;22.77;;;;;;;-147.27;100.00;65176.34;4977555;28;20049;-51
2022/06/30 05:28:06;;;;;;;31.37;21.23;;;;;;;-147.27;100.00;65176.34;4976700;28;20031;-51
2022/06/30 05:30:33;;;;;;;29.27;20.93;;;;;;;-147.27;100.00;65176.34;4974649;28;20035;-54
2022/06/30 05:32:58;;;;;;;;;;;;;;;-147.27;100.00;65176.34;4972079;28;20108;-53
2022/06/30 05:35:24;;;;;;;32.30;19.60;;;;;;;-147.27;100.00;65176.34;4973497;28;19922;-54
2022/06/30 05:37:50;;;;;;;47.55;21.00;;;;;;;-147.27;100.00;65176.34;4975146;28;20070;-55
2022/06/30 05:40:16;;;;;;;30.07;19.40;;;;;;;-147.27;100.00;65176.34;4982514;28;20103;-53
2022/06/30 05:42:41;;;;;;;33.15;21.83;;;;;;;-147.27;100.00;65176.34;4981161;28;20027;-54
2022/06/30 05:45:07;;;;;;;33.97;22.35;;;;;;;-147.27;100.00;65176.34;4986061;28;20035;-52
2022/06/30 05:47:33;;;;;;;;;;;;;;;-147.27;100.00;65176.34;4983582;28;20046;-49
2022/06/30 05:49:59;;;;;;;32.67;21.27;;;;;;;-147.27;100.00;65176.34;4982600;28;19914;-53
2022/06/30 05:52:25;;;;;;;35.13;22.07;;;;;;;-147.27;100.00;65176.34;4979099;28;20054;-53
2022/06/30 05:54:51;;;;;;;;;;;;;;;-147.27;100.00;65176.34;4980191;28;20040;-50
2022/06/30 05:57:17;;;;;;;31.17;21.43;;;;;;;-147.27;100.00;65176.34;4974648;28;19978;-53
2022/06/30 05:59:42;;;;;;;34.58;22.60;;;;;;;-147.27;100.00;65176.34;4981958;28;20050;-51
2022/06/30 06:02:08;;;;;;;44.45;27.27;;;;;;;-147.27;100.00;65176.34;4973579;28;20043;-51
2022/06/30 06:04:34;;;;;;;36.22;26.55;;;;;;;-147.27;100.00;65176.34;4978714;28;20035;-54
2022/06/30 06:07:02;;;;;;;72.90;44.57;;;;;;;-147.27;100.00;65176.34;4977477;28;20043;-52
2022/06/30 06:09:28;;;;;;;40.43;26.10;;;;;;;-147.27;100.00;65176.34;4980235;28;20047;-52
2022/06/30 06:11:54;;;;;;;56.20;38.72;;;;;;;-147.27;100.00;65176.34;4980054;28;20036;-52
2022/06/30 06:14:19;;;;;;;84.88;52.00;;;;;;;-147.27;100.00;65176.34;4978381;28;20051;-49
2022/06/30 06:16:45;;;;;;;56.08;35.03;;;;;;;-147.27;100.00;65176.34;4978238;28;20035;-54
2022/06/30 06:19:11;;;;;;;34.80;22.40;;;;;;;-147.27;100.00;65176.34;4979499;28;20039;-53
2022/06/30 06:21:36;;;;;;;40.92;26.45;;;;;;;-147.27;100.00;65176.34;4977955;28;20269;-51
2022/06/30 06:24:02;;;;;;;51.08;32.00;;;;;;;-147.27;100.00;65176.34;4975113;28;20098;-51
2022/06/30 06:26:27;;;;;;;36.50;25.80;;;;;;;-147.27;100.00;65176.34;4979169;28;20031;-53
2022/06/30 06:29:05;;;;;;;44.42;25.33;;;;;;;-147.27;100.00;65176.34;4980934;28;20035;-51
2022/06/30 06:31:33;;;;;;;39.67;23.03;;;;;;;-147.27;100.00;65176.34;4974740;28;20040;-50
2022/06/30 06:34:00;;;;;;;36.50;25.63;;;;;;;-147.27;100.00;65176.34;4981237;28;20065;-53
2022/06/30 06:36:27;;;;;;;40.27;25.70;;;;;;;-147.27;100.00;65176.34;4983015;28;20115;-53
2022/06/30 06:38:53;;;;;;;35.67;23.83;;;;;;;-147.27;100.00;65176.34;4979102;28;20038;-51
2022/06/30 06:41:20;;;;;;;;;;;;;;;-147.27;100.00;65176.34;4982422;28;20022;-48
2022/06/30 06:43:48;;;;;;;38.17;24.73;;;;;;;-147.27;100.00;65176.34;4983712;28;19941;-51
2022/06/30 06:46:14;;;;;;;35.73;24.53;;;;;;;-147.27;100.00;65176.34;4981376;28;20118;-50
2022/06/30 06:48:41;;;;;;;;;;;;;;;-147.27;100.00;65176.34;4982877;28;20031;-51
2022/06/30 06:51:06;;;;;;;42.33;23.07;;;;;;;-147.27;100.00;65176.34;4978880;28;20025;-51
2022/06/30 06:53:32;;;;;;;31.15;19.55;;;;;;;-147.27;100.00;65176.34;4982413;28;20111;-54
2022/06/30 06:55:58;;;;;;;34.35;19.17;;;;;;;-147.27;100.00;65176.34;4978436;28;20035;-49
2022/06/30 06:58:23;;;;;;;30.02;18.50;;;;;;;-147.27;100.00;65176.34;4978355;28;20107;-50
2022/06/30 07:00:49;;;;;;;26.40;16.00;;;;;;;-147.27;100.00;65176.34;4974600;28;20065;-46
2022/06/30 07:03:14;;;;;;;27.33;16.75;;;;;;;-147.27;100.00;65176.34;4980217;28;20027;-55
2022/06/30 07:05:40;;;;;;;24.40;14.63;;;;;;;-147.27;100.00;65176.34;4978371;28;20035;-50
2022/06/30 07:08:06;;;;;;;23.50;13.52;;;;;;;-147.27;100.00;65176.34;4977333;28;20038;-53
2022/06/30 07:10:31;;;;;;;25.50;14.48;;;;;;;-147.27;100.00;65176.34;4981213;28;20035;-51
2022/06/30 07:12:57;;;;;;;24.23;13.73;;;;;;;-147.27;100.00;65176.34;4977021;28;20035;-50
2022/06/30 07:15:22;;;;;;;22.15;12.45;;;;;;;-147.27;100.00;65176.34;4977213;28;20059;-47
2022/06/30 07:17:48;;;;;;;20.80;12.40;;;;;;;-147.27;100.00;65176.34;4979300;28;20043;-51
2022/06/30 07:20:14;;;;;;;;;;;;;;;-147.27;100.00;65176.34;4979364;28;20074;-50
2022/06/30 07:22:40;;;;;;;15.17;10.93;;;;;;;-147.27;100.00;65176.34;4978665;28;19914;-51
2022/06/30 07:25:06;;;;;;;23.40;11.30;;;;;;;-147.27;100.00;65176.34;4977142;28;20033;-51
2022/06/30 07:27:31;;;;;;;;;;;;;;;-147.27;100.00;65176.34;4979835;28;20035;-49
2022/06/30 07:29:57;;;;;;;13.03;8.60;;;;;;;-147.27;100.00;65176.34;4974557;28;19922;-48
2022/06/30 07:32:22;;;;;;;16.08;9.13;;;;;;;-147.27;100.00;65176.34;4978389;28;20039;-51
2022/06/30 07:34:48;;;;;;;14.70;9.55;;;;;;;-147.27;100.00;65176.34;4974767;28;20066;-49
2022/06/30 07:37:14;;;;;;;18.40;8.10;;;;;;;-147.27;100.00;65176.34;4979848;28;20073;-55
2022/06/30 07:39:39;;;;;;;15.52;8.63;;;;;;;-147.27;100.00;65176.34;4980567;28;20074;-50
2022/06/30 07:42:05;;;;;;;11.32;8.10;;;;;;;-147.27;100.00;65176.34;4978936;28;20027;-52
2022/06/30 07:44:30;;;;;;;11.32;7.05;;;;;;;-147.27;100.00;65176.34;4982428;28;20051;-51
2022/06/30 07:46:55;;;;;;;15.60;8.48;;;;;;;-147.27;100.00;65176.34;4981844;28;20042;-51
2022/06/30 07:49:21;;;;;;;19.15;8.38;;;;;;;-147.27;100.00;65176.34;4977062;28;20046;-55
2022/06/30 07:51:48;;;;;;;;;;;;;;;-147.27;100.00;65176.34;4976629;28;20055;-51
2022/06/30 07:54:14;;;;;;;14.63;7.73;;;;;;;-147.27;100.00;65176.34;4979487;28;19914;-53
2022/06/30 07:56:40;;;;;;;13.20;7.23;;;;;;;-147.27;100.00;65176.34;4982544;28;20041;-52
2022/06/30 07:59:06;;;;;;;17.77;8.15;;;;;;;-147.27;100.00;65176.34;4981945;28;20035;-51
2022/06/30 08:01:31;;;;;;;;;;;;;;;-147.27;100.00;65176.34;4977839;28;20107;-52
2022/06/30 08:03:57;;;;;;;9.83;4.87;;;;;;;-147.27;100.00;65176.34;4976320;28;19948;-48
2022/06/30 08:06:24;;;;;;;14.15;7.07;;;;;;;-147.27;100.00;65176.34;4981236;28;20058;-52
2022/06/30 08:08:50;;;;;;;19.37;7.50;;;;;;;-147.27;100.00;65176.34;4977355;28;20041;-49
2022/06/30 08:11:16;;;;;;;19.33;7.23;;;;;;;-147.27;100.00;65176.34;4981888;28;20063;-52
2022/06/30 08:13:42;;;;;;;;;;;;;;;-147.27;100.00;65176.34;4981518;28;20031;-52
2022/06/30 08:16:09;;;;;;;13.50;6.60;;;;;;;-147.27;100.00;65176.34;4976452;28;19915;-50
2022/06/30 08:18:34;;;;;;;14.90;6.73;;;;;;;-147.27;100.00;65176.34;4973818;28;20039;-53
2022/06/30 08:21:00;;;;;;;14.73;6.35;;;;;;;-147.27;100.00;65176.34;4973827;28;20100;-53
2022/06/30 08:23:25;;;;;;;19.05;6.25;;;;;;;-147.27;100.00;65176.34;4980925;28;20065;-51
2022/06/30 08:25:51;;;;;;;15.95;6.43;;;;;;;-147.27;100.00;65176.34;4988658;28;20092;-55
2022/06/30 08:28:17;;;;;;;18.25;6.72;;;;;;;-147.27;100.00;65176.34;4978747;28;20073;-52
2022/06/30 08:30:42;;;;;;;14.38;5.55;;;;;;;-147.27;100.00;65176.34;4981698;28;20035;-53
2022/06/30 08:33:08;;;;;;;;;;;;;;;-147.27;100.00;65176.34;4974779;28;20059;-52
2022/06/30 08:35:34;;;;;;;12.23;5.10;;;;;;;-147.27;100.00;65176.34;4978608;28;19914;-53
2022/06/30 08:37:59;;;;;;;16.00;6.82;;;;;;;-147.27;100.00;65176.34;4980706;28;20059;-53
2022/06/30 08:43:09;;;;;;;10.40;4.60;;;;;;;-147.27;100.00;65176.34;4979734;28;20027;-51
2022/06/30 08:45:35;;;;;;;13.87;6.03;;;;;;;-147.27;100.00;65176.34;4976434;28;20038;-51
2022/06/30 08:48:01;;;;;;;10.55;5.30;;;;;;;-147.27;100.00;65176.34;4979521;28;20035;-52
2022/06/30 08:50:27;;;;;;;13.43;5.95;;;;;;;-147.27;100.00;65176.34;4981630;28;20057;-53
2022/06/30 08:52:57;;;;;;;14.63;6.20;;;;;;;-147.27;100.00;65176.34;4981080;28;20062;-53
2022/06/30 08:55:28;;;;;;;15.17;6.60;;;;;;;-147.27;100.00;65176.34;4981740;28;20039;-49
2022/06/30 08:58:05;;;;;;;15.30;6.40;;;;;;;-147.27;100.00;65176.34;4975798;28;20045;-51
2022/06/30 09:00:31;;;;;;;16.47;6.17;;;;;;;-147.27;100.00;65176.34;4977808;28;20039;-48
2022/06/30 09:02:56;;;;;;;;;;;;;;;-147.27;100.00;65176.34;4978027;28;20058;-50
2022/06/30 09:05:22;;;;;;;10.43;4.43;;;;;;;-147.27;100.00;65176.34;4973991;28;19985;-49
2022/06/30 09:07:47;;;;;;;;;;;;;;;-147.27;100.00;65176.34;4977678;28;20117;-53
2022/06/30 09:10:13;;;;;;;13.63;6.00;;;;;;;-147.27;100.00;65176.34;4977928;28;19914;-52
2022/06/30 09:12:38;;;;;;;;;;;;;;;-147.27;100.00;65176.34;4973445;28;20043;-49
2022/06/30 09:15:04;;;;;;;16.20;5.43;;;;;;;-147.27;100.00;65176.34;4978137;28;19914;-51
2022/06/30 09:17:30;;;;;;;;;;;;;;;-147.27;100.00;65176.34;4978693;28;20035;-51
2022/06/30 09:19:59;;;;;;;14.35;5.10;;;;;;;-147.27;100.00;65176.34;4977592;28;19915;-49
2022/06/30 09:22:30;;;;;;;15.70;7.00;;;;;;;-147.27;100.00;65176.34;4976369;28;20046;-50
2022/06/30 09:25:08;;;;;;;8.93;3.87;;;;;;;-147.27;100.00;65176.34;4975055;28;20059;-50
2022/06/30 09:27:36;;;;;;;9.67;4.47;;;;;;;-147.27;100.00;65176.34;4979110;28;20035;-49
2022/06/30 09:30:14;;;;;;;15.03;5.67;;;;;;;-147.27;100.00;65176.34;4974708;28;20050;-48
2022/06/30 09:32:44;;;;;;;9.57;2.93;;;;;;;-147.27;100.00;65176.34;4993042;28;20035;-48
2022/06/30 09:35:11;;;;;;;7.93;3.77;;;;;;;-147.27;100.00;65176.34;4985693;28;20042;-50
2022/06/30 09:37:37;;;;;;;10.73;4.97;;;;;;;-147.27;100.00;65176.34;4975570;28;20039;-51
2022/06/30 09:40:05;;;;;;;11.77;4.00;;;;;;;-147.27;100.00;65176.34;4977553;28;20043;-48
2022/06/30 09:42:44;;;;;;;11.17;4.23;;;;;;;-147.27;100.00;65176.34;4976078;28;20038;-50
2022/06/30 09:45:12;;;;;;;9.70;3.95;;;;;;;-147.27;100.00;65176.34;4973754;28;20039;-48
2022/06/30 09:47:52;;;;;;;10.85;4.18;;;;;;;-147.27;100.00;65176.34;4975801;28;20036;-51
2022/06/30 09:50:18;;;;;;;9.63;4.22;;;;;;;-147.27;100.00;65176.34;4972780;28;20039;-49
2022/06/30 09:52:43;;;;;;;11.57;4.57;;;;;;;-147.27;100.00;65176.34;4973730;28;20042;-51
2022/06/30 09:55:08;;;;;;;7.90;4.30;;;;;;;-147.27;100.00;65176.34;4978381;28;20039;-51
2022/06/30 09:57:44;;;;;;;10.60;4.55;;;;;;;-147.27;100.00;65176.34;4981444;28;20034;-51
2022/06/30 10:00:12;;;;;;;;;;;;;;;-147.27;100.00;65176.34;4979412;28;20020;-52
2022/06/30 10:02:40;;;;;;;11.35;4.15;;;;;;;-147.27;100.00;65176.34;4976025;28;19914;-54
2022/06/30 10:05:07;;;;;;;17.98;5.60;;;;;;;-147.27;100.00;65176.34;4972345;28;20059;-54
2022/06/30 10:07:35;;;;;;;13.18;4.30;;;;;;;-147.27;100.00;65176.34;4983773;28;20039;-52
2022/06/30 10:10:04;;;;;;;8.05;3.20;;;;;;;-147.27;100.00;65176.34;4977579;28;20057;-52
2022/06/30 10:12:30;;;;;;;12.07;3.80;;;;;;;-147.27;100.00;65176.34;4978583;28;20086;-51
2022/06/30 10:14:56;;;;;;;4.68;2.03;;;;;;;-147.27;100.00;65176.34;4980561;28;20057;-52
2022/06/30 10:17:31;;;;;;;10.32;3.28;;;;;;;-147.27;100.00;65176.34;4980956;28;20035;-49
2022/06/30 10:19:57;;;;;;;8.27;4.03;;;;;;;-147.27;100.00;65176.34;4979426;28;20051;-53
2022/06/30 10:22:25;;;;;;;6.20;2.33;;;;;;;-147.27;100.00;65176.34;4986755;28;20027;-50
2022/06/30 10:24:53;;;;;;;12.70;3.75;;;;;;;-147.27;100.00;65176.34;4978835;28;20112;-52
2022/06/30 10:27:20;;;;;;;8.57;3.50;;;;;;;-147.27;100.00;65176.34;4980303;28;20030;-50
2022/06/30 10:29:50;;;;;;;6.72;2.75;;;;;;;-147.27;100.00;65176.34;4984702;28;20043;-49
2022/06/30 10:32:24;;;;;;;6.32;2.83;;;;;;;-147.27;100.00;65176.34;4981224;28;20035;-50
2022/06/30 10:35:29;;;;;;;9.60;3.30;;;;;;;-147.27;100.00;65176.34;4978994;28;20039;-52
2022/06/30 10:38:03;;;;;;;11.38;3.28;;;;;;;-147.27;100.00;65176.34;5002935;28;20057;-53
2022/06/30 10:41:03;;;;;;;4.93;2.50;;;;;;;-147.27;100.00;65176.34;4981261;28;20038;-50
2022/06/30 10:43:29;;;;;;;7.40;3.38;;;;;;;-147.27;100.00;65176.34;4979762;28;20042;-51
2022/06/30 10:45:57;;;;;;;6.90;2.85;;;;;;;-147.27;100.00;65176.34;4979185;28;20055;-53
2022/06/30 10:48:24;;;;;;;9.88;3.20;;;;;;;-147.27;100.00;65176.34;4977374;28;20045;-50
2022/06/30 10:50:51;;;;;;;7.07;3.05;;;;;;;-147.27;100.00;65176.34;4984557;28;20035;-53
2022/06/30 10:53:37;;;;;;;7.75;2.83;;;;;;;-147.27;100.00;65176.34;4977431;28;20023;-51
2022/06/30 10:56:03;;;;;;;8.02;2.92;;;;;;;-147.27;100.00;65176.34;4976555;28;20103;-53
2022/06/30 10:58:30;;;;;;;5.78;2.90;;;;;;;-147.27;100.00;65176.34;4976930;28;20054;-53
2022/06/30 11:00:55;;;;;;;3.85;2.00;;;;;;;-147.27;100.00;65176.34;4979841;28;20035;-53
2022/06/30 11:03:30;;;;;;;8.77;2.60;;;;;;;-147.27;100.00;65176.34;4975688;28;20035;-55
2022/06/30 11:05:57;;;;;;;5.40;2.47;;;;;;;-147.27;100.00;65176.34;4978702;28;20030;-52
2022/06/30 11:08:57;;;;;;;6.53;2.25;;;;;;;-147.27;100.00;65176.34;4981177;28;20590;-50
2022/06/30 11:11:23;;;;;;;11.90;2.40;;;;;;;-147.27;100.00;65176.34;4978031;28;20055;-49
2022/06/30 11:13:50;;;;;;;7.70;2.65;;;;;;;-147.27;100.00;65176.34;4978500;28;20043;-52
2022/06/30 11:16:18;;;;;;;6.05;2.45;;;;;;;-147.27;100.00;65176.34;4977036;28;20042;-50